Time;durP1;ratioP1;P1;durP2;ratioP2;P2;SDS_P1;SDS_P2;PMS_P1;PMS_P2;Temp;Humidity;BMP_temperature;BMP_pressure;BME280_temperature;BME280_humidity;BME280_pressure;Samples;Min_cycle;Max_cycle;Signal;HPM_P1;HPM_P2
2023/11/23 00:00:10;;;;;;;17.75;7.10;;;2.70;100.00;;;;;;5003585;28;20076;-79
2023/11/23 00:02:39;;;;;;;17.52;6.53;;;2.70;100.00;;;;;;5007407;28;20133;-79
2023/11/23 00:05:08;;;;;;;15.35;6.30;;;2.70;100.00;;;;;;5006634;28;20141;-78
2023/11/23 00:07:35;;;;;;;13.60;5.53;;;2.80;100.00;;;;;;5005764;28;20049;-79
2023/11/23 00:10:05;;;;;;;12.82;5.60;;;2.80;100.00;;;;;;5000709;28;20050;-77
2023/11/23 00:12:32;;;;;;;15.13;5.85;;;2.90;100.00;;;;;;4989037;28;20547;-78
2023/11/23 00:15:02;;;;;;;14.00;5.88;;;2.90;100.00;;;;;;4989058;28;20070;-78
2023/11/23 00:17:30;;;;;;;13.75;6.63;;;2.90;100.00;;;;;;5000631;28;20723;-78
2023/11/23 00:19:58;;;;;;;25.23;7.15;;;3.00;100.00;;;;;;5007090;28;20061;-78
2023/11/23 00:22:26;;;;;;;18.42;6.82;;;3.10;100.00;;;;;;4988108;28;20046;-79
2023/11/23 00:24:54;;;;;;;19.15;6.57;;;3.20;100.00;;;;;;4992891;28;20063;-78
2023/11/23 00:27:21;;;;;;;19.23;7.78;;;3.20;100.00;;;;;;5008867;28;20046;-78
2023/11/23 00:29:48;;;;;;;18.05;7.03;;;3.30;100.00;;;;;;4992969;28;20050;-79
2023/11/23 00:32:15;;;;;;;19.70;7.18;;;3.40;100.00;;;;;;4984871;28;20501;-80
2023/11/23 00:34:42;;;;;;;19.42;7.68;;;3.40;100.00;;;;;;4992346;28;20041;-79
2023/11/23 00:37:09;;;;;;;15.05;7.30;;;3.50;100.00;;;;;;5006457;28;20052;-80
2023/11/23 00:39:36;;;;;;;19.13;8.98;;;3.60;100.00;;;;;;5007135;28;20180;-79
2023/11/23 00:42:04;;;;;;;23.23;8.38;;;3.60;100.00;;;;;;5004401;28;20364;-79
2023/11/23 00:44:31;;;;;;;19.77;8.27;;;3.70;100.00;;;;;;5020865;28;20054;-79
2023/11/23 00:46:59;;;;;;;22.73;8.60;;;3.80;100.00;;;;;;5002915;28;20172;-80
2023/11/23 00:49:27;;;;;;;24.33;9.48;;;3.80;100.00;;;;;;4988310;28;20125;-80
2023/11/23 00:51:54;;;;;;;21.88;8.85;;;3.90;100.00;;;;;;5005345;28;20833;-79
2023/11/23 00:54:21;;;;;;;17.67;9.00;;;4.00;100.00;;;;;;5005309;28;20038;-80
2023/11/23 00:59:43;;;;;;;20.52;8.50;;;4.20;100.00;;;;;;4981280;28;20524;-79
2023/11/23 01:02:10;;;;;;;23.10;10.32;;;4.20;100.00;;;;;;4974093;28;20050;-79
2023/11/23 01:04:37;;;;;;;21.75;9.70;;;4.20;100.00;;;;;;4995521;28;20056;-79
2023/11/23 01:07:04;;;;;;;25.67;10.15;;;4.30;100.00;;;;;;5000751;28;20057;-79
2023/11/23 01:09:31;;;;;;;20.83;9.45;;;4.30;100.00;;;;;;4984865;28;20053;-79
2023/11/23 01:11:58;;;;;;;21.58;9.90;;;4.30;100.00;;;;;;4990635;23;20047;-80
2023/11/23 01:14:25;;;;;;;21.15;8.70;;;4.40;100.00;;;;;;5026182;28;20049;-79
2023/11/23 01:16:52;;;;;;;22.17;9.48;;;4.40;100.00;;;;;;5047822;28;20053;-79
2023/11/23 01:19:19;;;;;;;24.23;10.35;;;4.40;100.00;;;;;;5048009;28;20060;-79
2023/11/23 01:24:58;;;;;;;23.55;10.27;;;4.50;100.00;;;;;;5044388;28;21003;-79
2023/11/23 01:27:25;;;;;;;24.55;9.93;;;4.50;100.00;;;;;;5027014;28;20482;-79
2023/11/23 01:29:51;;;;;;;24.48;10.05;;;4.50;100.00;;;;;;5047542;28;20041;-79
2023/11/23 01:32:18;;;;;;;30.50;10.93;;;4.50;100.00;;;;;;5059226;28;20102;-79
2023/11/23 01:34:45;;;;;;;30.58;12.63;;;4.50;100.00;;;;;;5047039;28;20786;-79
2023/11/23 01:37:12;;;;;;;22.98;10.27;;;4.50;100.00;;;;;;5048257;28;20053;-80
2023/11/23 01:39:39;;;;;;;27.20;10.60;;;4.50;100.00;;;;;;5043811;28;20812;-80
2023/11/23 01:42:06;;;;;;;25.70;10.88;;;4.60;100.00;;;;;;5045162;28;20505;-81
2023/11/23 01:44:33;;;;;;;26.33;10.88;;;4.60;100.00;;;;;;5056471;28;20053;-80
2023/11/23 01:47:03;;;;;;;30.63;10.10;;;4.60;100.00;;;;;;5051007;28;20082;-81
2023/11/23 01:49:34;;;;;;;26.85;10.63;;;4.60;100.00;;;;;;5046668;28;20077;-81
2023/11/23 01:52:02;;;;;;;31.33;10.40;;;4.60;100.00;;;;;;5031154;28;20122;-80
2023/11/23 01:54:29;;;;;;;29.83;10.73;;;4.70;100.00;;;;;;5046508;28;20049;-81
2023/11/23 01:56:56;;;;;;;27.75;10.38;;;4.70;100.00;;;;;;5048429;28;20487;-81
2023/11/23 01:59:26;;;;;;;24.90;10.38;;;4.70;100.00;;;;;;5026424;28;20055;-82
2023/11/23 02:01:56;;;;;;;25.48;10.75;;;4.80;100.00;;;;;;5049010;28;20655;-81
2023/11/23 02:04:24;;;;;;;25.33;10.82;;;4.80;100.00;;;;;;5029594;28;20049;-81
2023/11/23 02:06:51;;;;;;;22.95;9.73;;;4.80;100.00;;;;;;5049623;28;20120;-82
2023/11/23 02:12:55;;;;;;;28.42;11.13;;;4.90;100.00;;;;;;5039895;28;20053;-80
2023/11/23 02:15:22;;;;;;;29.45;9.75;;;4.80;100.00;;;;;;5046491;28;20041;-80
2023/11/23 02:18:02;;;;;;;31.75;10.43;;;4.90;100.00;;;;;;5028213;28;20152;-80
2023/11/23 02:20:31;;;;;;;28.40;10.57;;;4.90;100.00;;;;;;5029797;28;20053;-80
2023/11/23 02:22:59;;;;;;;27.15;10.60;;;4.90;100.00;;;;;;5028762;28;20152;-79
2023/11/23 02:25:27;;;;;;;26.10;10.63;;;4.90;100.00;;;;;;5046246;28;20107;-80
2023/11/23 02:27:54;;;;;;;24.30;9.57;;;4.90;100.00;;;;;;5052669;22;20087;-80
2023/11/23 02:30:21;;;;;;;23.25;9.95;;;4.90;100.00;;;;;;5027655;28;20374;-80
2023/11/23 02:32:50;;;;;;;27.65;10.10;;;4.90;100.00;;;;;;5030326;28;20037;-80
2023/11/23 02:35:20;;;;;;;26.73;10.68;;;5.00;100.00;;;;;;5041055;28;20045;-80
2023/11/23 02:37:47;;;;;;;27.77;10.82;;;5.00;100.00;;;;;;5022175;28;20045;-80
2023/11/23 02:40:15;;;;;;;32.17;10.65;;;5.10;100.00;;;;;;5031178;28;20049;-80
2023/11/23 02:42:42;;;;;;;25.33;10.48;;;5.20;100.00;;;;;;5046017;28;20528;-80
2023/11/23 02:45:12;;;;;;;27.55;10.52;;;5.30;100.00;;;;;;5030608;28;20045;-81
2023/11/23 02:51:00;;;;;;;22.15;9.73;;;5.50;100.00;;;;;;5048086;28;20486;-82
2023/11/23 02:53:29;;;;;;;27.83;11.05;;;5.50;100.00;;;;;;5045442;28;20052;-80
2023/11/23 02:55:56;;;;;;;28.20;11.15;;;5.60;100.00;;;;;;5026546;28;20478;-80
2023/11/23 02:58:23;;;;;;;24.75;10.60;;;5.60;100.00;;;;;;5024379;28;20076;-80
2023/11/23 03:00:53;;;;;;;24.75;10.90;;;5.60;100.00;;;;;;5024706;28;20057;-80
2023/11/23 03:03:20;;;;;;;25.30;10.88;;;5.70;100.00;;;;;;5046544;23;20049;-80
2023/11/23 03:05:47;;;;;;;29.30;11.15;;;5.80;100.00;;;;;;5004833;28;20049;-80
2023/11/23 03:08:15;;;;;;;25.60;10.48;;;5.80;100.00;;;;;;4987633;28;20042;-82
2023/11/23 03:13:25;;;;;;;25.63;11.05;;;5.90;100.00;;;;;;5019277;28;20669;-80
2023/11/23 03:15:52;;;;;;;26.73;10.98;;;6.00;100.00;;;;;;5024998;28;20073;-80
2023/11/23 03:18:19;;;;;;;26.00;9.73;;;6.00;100.00;;;;;;5019411;28;20483;-80
2023/11/23 03:20:46;;;;;;;24.23;10.77;;;6.10;100.00;;;;;;5006318;28;20160;-80
2023/11/23 03:23:13;;;;;;;26.83;10.48;;;6.10;100.00;;;;;;5023216;28;20069;-80
2023/11/23 03:25:40;;;;;;;26.75;10.43;;;6.10;100.00;;;;;;5015626;28;20049;-79
2023/11/23 03:28:07;;;;;;;25.42;11.05;;;6.10;100.00;;;;;;5021037;28;20064;-80
2023/11/23 03:30:37;;;;;;;25.55;10.52;;;6.10;100.00;;;;;;5026669;28;20079;-82
2023/11/23 03:33:04;;;;;;;29.20;12.52;;;6.20;100.00;;;;;;5009709;28;20065;-82
2023/11/23 03:35:31;;;;;;;23.50;10.73;;;6.20;100.00;;;;;;5015292;28;20100;-80
2023/11/23 03:37:58;;;;;;;30.83;11.73;;;6.20;100.00;;;;;;5028143;28;20042;-80
2023/11/23 03:40:25;;;;;;;28.25;11.32;;;6.20;100.00;;;;;;5003745;28;20127;-81
2023/11/23 03:42:52;;;;;;;27.70;10.95;;;6.20;100.00;;;;;;5015073;28;20120;-81
2023/11/23 03:45:18;;;;;;;29.55;11.68;;;6.20;100.00;;;;;;5011303;28;20779;-82
2023/11/23 03:47:47;;;;;;;30.73;12.40;;;6.30;100.00;;;;;;5011388;28;20052;-82
2023/11/23 03:50:15;;;;;;;29.88;12.10;;;6.30;100.00;;;;;;5011708;28;20045;-81
2023/11/23 03:52:42;;;;;;;24.73;10.55;;;6.30;100.00;;;;;;5013431;28;20052;-82
2023/11/23 03:55:09;;;;;;;29.02;10.52;;;6.30;100.00;;;;;;5013464;28;20042;-81
2023/11/23 03:57:37;;;;;;;32.05;12.73;;;6.40;100.00;;;;;;5012410;28;20069;-81
2023/11/23 04:00:06;;;;;;;30.00;12.43;;;6.40;100.00;;;;;;5004271;28;20053;-81
2023/11/23 04:02:34;;;;;;;31.10;12.10;;;6.40;100.00;;;;;;5006830;28;20085;-80
2023/11/23 04:05:01;;;;;;;28.17;11.40;;;6.50;100.00;;;;;;5030512;28;20104;-81
2023/11/23 04:07:28;;;;;;;27.63;10.98;;;6.50;100.00;;;;;;5007761;28;20485;-81
2023/11/23 04:09:54;;;;;;;28.20;11.68;;;6.60;100.00;;;;;;5019049;28;20049;-81
2023/11/23 04:12:21;;;;;;;27.48;11.93;;;6.60;100.00;;;;;;5027367;28;20041;-81
2023/11/23 04:14:48;;;;;;;29.88;11.32;;;6.70;100.00;;;;;;5010077;28;20046;-80
2023/11/23 04:17:15;;;;;;;32.22;10.57;;;6.70;100.00;;;;;;5013752;28;20131;-81
2023/11/23 04:19:43;;;;;;;25.52;9.95;;;6.80;100.00;;;;;;5027464;28;20054;-81
2023/11/23 04:22:11;;;;;;;27.95;12.10;;;6.80;100.00;;;;;;5022950;28;20049;-79
2023/11/23 04:24:40;;;;;;;24.30;9.73;;;6.80;100.00;;;;;;5012095;28;20057;-80
2023/11/23 04:27:11;;;;;;;22.08;10.77;;;6.90;100.00;;;;;;5010941;28;20052;-80
2023/11/23 04:29:38;;;;;;;26.90;11.63;;;6.90;100.00;;;;;;5011150;28;20065;-80
2023/11/23 04:32:06;;;;;;;28.08;11.20;;;7.00;100.00;;;;;;5029795;28;20095;-80
2023/11/23 04:35:16;;;;;;;24.00;10.63;;;7.10;100.00;;;;;;5024262;28;20037;-82
2023/11/23 04:37:42;;;;;;;30.00;10.48;;;7.10;100.00;;;;;;5014461;28;20399;-82
2023/11/23 04:40:10;;;;;;;29.90;12.05;;;7.20;100.00;;;;;;5026532;28;20046;-82
2023/11/23 04:42:38;;;;;;;27.77;11.02;;;7.20;100.00;;;;;;5013055;28;20085;-81
2023/11/23 04:45:06;;;;;;;21.10;10.73;;;7.30;100.00;;;;;;5015055;28;20057;-81
2023/11/23 04:47:33;;;;;;;28.50;11.82;;;7.30;100.00;;;;;;5025258;28;20041;-82
2023/11/23 04:50:00;;;;;;;20.95;10.32;;;7.40;100.00;;;;;;5027996;28;20666;-81
2023/11/23 04:52:26;;;;;;;23.48;10.25;;;7.40;100.00;;;;;;5028960;28;20048;-81
2023/11/23 04:54:53;;;;;;;24.63;9.93;;;7.40;100.00;;;;;;5012336;28;20049;-81
2023/11/23 04:57:22;;;;;;;25.92;10.23;;;7.50;100.00;;;;;;5025640;28;20045;-80
2023/11/23 04:59:50;;;;;;;24.15;10.88;;;7.50;100.00;;;;;;5023867;28;20379;-81
2023/11/23 05:02:17;;;;;;;28.40;11.60;;;7.50;100.00;;;;;;5033518;28;20049;-84
2023/11/23 05:04:45;;;;;;;24.23;10.95;;;7.60;100.00;;;;;;5029220;28;20073;-84
2023/11/23 05:07:12;;;;;;;25.75;10.18;;;7.60;100.00;;;;;;5012914;28;20041;-83
2023/11/23 05:09:38;;;;;;;23.52;11.10;;;7.60;100.00;;;;;;5032791;28;20049;-83
2023/11/23 05:12:06;;;;;;;26.25;10.45;;;7.60;100.00;;;;;;5030322;28;20088;-80
2023/11/23 05:14:33;;;;;;;24.98;10.70;;;7.60;100.00;;;;;;5027112;28;20057;-81
2023/11/23 05:16:59;;;;;;;27.88;11.23;;;7.70;100.00;;;;;;5013972;28;20057;-83
2023/11/23 05:19:26;;;;;;;23.95;10.43;;;7.70;100.00;;;;;;5027623;28;20140;-81
2023/11/23 05:22:07;;;;;;;26.98;10.95;;;7.80;100.00;;;;;;5025499;28;20057;-82
2023/11/23 05:24:34;;;;;;;23.48;10.80;;;7.80;100.00;;;;;;5027922;28;20053;-81
2023/11/23 05:27:01;;;;;;;27.30;11.07;;;7.80;100.00;;;;;;5030939;28;20680;-81
2023/11/23 05:29:28;;;;;;;25.35;10.98;;;7.80;100.00;;;;;;5028050;28;20049;-81
2023/11/23 05:31:55;;;;;;;26.48;10.75;;;7.80;100.00;;;;;;5011157;28;20053;-82
2023/11/23 05:34:22;;;;;;;22.23;10.93;;;7.90;100.00;;;;;;5012692;28;20625;-77
2023/11/23 05:36:49;;;;;;;24.25;9.63;;;7.90;100.00;;;;;;5020388;28;20080;-78
2023/11/23 05:39:17;;;;;;;24.33;10.02;;;8.00;100.00;;;;;;5025223;28;20049;-79
2023/11/23 05:41:44;;;;;;;19.58;9.25;;;8.00;100.00;;;;;;5029008;28;20141;-80
2023/11/23 05:44:11;;;;;;;20.13;9.13;;;8.00;100.00;;;;;;5024567;28;20525;-82
2023/11/23 05:46:38;;;;;;;25.50;9.02;;;8.00;100.00;;;;;;5032259;28;20055;-82
2023/11/23 05:49:07;;;;;;;24.52;9.73;;;8.10;100.00;;;;;;5016931;28;20045;-78
2023/11/23 05:51:34;;;;;;;21.42;9.23;;;8.10;100.00;;;;;;5014292;28;20095;-80
2023/11/23 05:54:01;;;;;;;18.17;9.05;;;8.20;100.00;;;;;;5026887;28;20074;-82
2023/11/23 05:56:28;;;;;;;17.83;8.95;;;8.20;100.00;;;;;;5025162;28;20048;-81
2023/11/23 05:58:55;;;;;;;23.05;8.40;;;8.20;100.00;;;;;;5006979;28;20433;-82
2023/11/23 06:01:21;;;;;;;18.85;8.73;;;8.20;100.00;;;;;;5027740;28;20064;-83
2023/11/23 06:03:49;;;;;;;18.23;7.95;;;8.20;100.00;;;;;;5026529;28;20073;-81
2023/11/23 06:06:21;;;;;;;19.50;9.13;;;8.20;100.00;;;;;;5028203;28;20517;-78
2023/11/23 06:08:50;;;;;;;17.13;8.13;;;8.30;100.00;;;;;;5013285;28;20049;-79
2023/11/23 06:11:17;;;;;;;16.70;7.25;;;8.30;100.00;;;;;;5005941;28;20053;-81
2023/11/23 06:13:45;;;;;;;17.75;8.30;;;8.30;100.00;;;;;;5023449;28;20780;-82
2023/11/23 06:16:13;;;;;;;14.95;8.00;;;8.40;100.00;;;;;;5001926;28;20037;-82
2023/11/23 06:18:40;;;;;;;15.35;7.65;;;8.40;100.00;;;;;;5025715;28;20053;-80
2023/11/23 06:21:08;;;;;;;18.88;8.27;;;8.50;100.00;;;;;;5022749;28;20044;-78
2023/11/23 06:23:35;;;;;;;17.50;7.60;;;8.50;100.00;;;;;;5005787;28;20576;-82
2023/11/23 06:26:02;;;;;;;17.90;6.80;;;8.50;100.00;;;;;;5030718;28;20059;-81
2023/11/23 06:28:29;;;;;;;13.98;6.63;;;8.50;100.00;;;;;;5009317;28;20147;-77
2023/11/23 06:30:55;;;;;;;14.57;7.55;;;8.60;100.00;;;;;;5010908;28;20127;-82
2023/11/23 06:33:22;;;;;;;16.63;7.30;;;8.60;100.00;;;;;;5011391;28;20044;-80
2023/11/23 06:35:50;;;;;;;17.33;7.32;;;8.60;100.00;;;;;;5027007;28;20103;-77
2023/11/23 06:38:18;;;;;;;12.43;7.22;;;8.60;100.00;;;;;;5015488;28;20130;-76
2023/11/23 06:40:46;;;;;;;18.60;7.68;;;8.60;100.00;;;;;;5007861;28;20053;-77
2023/11/23 06:43:14;;;;;;;14.85;6.60;;;8.60;100.00;;;;;;5024803;28;20559;-80
2023/11/23 06:45:41;;;;;;;15.63;6.78;;;8.60;100.00;;;;;;5020904;28;20060;-77
2023/11/23 06:48:08;;;;;;;14.52;6.90;;;8.70;100.00;;;;;;5019071;28;20682;-79
2023/11/23 06:50:35;;;;;;;12.85;6.20;;;8.70;100.00;;;;;;5006556;28;20049;-77
2023/11/23 06:53:18;;;;;;;13.55;6.60;;;8.70;100.00;;;;;;5021014;28;20088;-78
2023/11/23 06:55:45;;;;;;;14.60;6.38;;;8.70;100.00;;;;;;5014930;28;21627;-79
2023/11/23 06:58:12;;;;;;;20.58;5.93;;;8.70;100.00;;;;;;5026926;28;20401;-78
2023/11/23 07:00:39;;;;;;;11.18;5.28;;;8.80;100.00;;;;;;5015488;28;20089;-78
2023/11/23 07:03:06;;;;;;;16.35;6.38;;;8.80;100.00;;;;;;5004990;28;20055;-79
2023/11/23 07:05:33;;;;;;;10.90;5.57;;;8.80;100.00;;;;;;5005367;28;20061;-78
2023/11/23 07:08:00;;;;;;;13.15;6.10;;;8.80;100.00;;;;;;5021133;28;20112;-78
2023/11/23 07:10:26;;;;;;;11.68;5.13;;;8.80;100.00;;;;;;5024052;28;20056;-76
2023/11/23 07:12:54;;;;;;;11.38;5.38;;;8.80;100.00;;;;;;5020313;28;20497;-77
2023/11/23 07:15:24;;;;;;;17.52;5.13;;;8.80;100.00;;;;;;5021831;28;20061;-77
2023/11/23 07:17:52;;;;;;;13.32;4.60;;;8.80;100.00;;;;;;4998139;28;20085;-77
2023/11/23 07:20:19;;;;;;;14.13;5.80;;;8.80;100.00;;;;;;5002966;28;20607;-77
2023/11/23 07:22:46;;;;;;;15.70;5.25;;;8.80;100.00;;;;;;5021434;28;20596;-77
2023/11/23 07:25:14;;;;;;;9.23;4.70;;;8.80;100.00;;;;;;5018510;28;20053;-77
2023/11/23 07:27:41;;;;;;;9.82;4.32;;;8.80;100.00;;;;;;5013128;28;20084;-76
2023/11/23 07:30:08;;;;;;;8.55;4.47;;;8.80;100.00;;;;;;4995454;28;20491;-78
2023/11/23 07:32:36;;;;;;;8.65;5.53;;;8.80;100.00;;;;;;5019163;28;20736;-76
2023/11/23 07:35:04;;;;;;;9.68;4.40;;;8.90;100.00;;;;;;5016850;28;20128;-76
2023/11/23 07:37:33;;;;;;;7.28;4.40;;;8.90;100.00;;;;;;5019276;28;20057;-76
2023/11/23 07:40:12;;;;;;;11.68;4.32;;;8.90;100.00;;;;;;5000670;28;20053;-75
2023/11/23 07:42:40;;;;;;;12.02;4.80;;;8.90;100.00;;;;;;5003877;28;20057;-75
2023/11/23 07:45:08;;;;;;;9.90;4.47;;;8.90;100.00;;;;;;5021387;28;20155;-76
2023/11/23 07:47:36;;;;;;;10.35;4.45;;;8.90;100.00;;;;;;5020877;28;20049;-76
2023/11/23 07:50:04;;;;;;;8.13;4.18;;;8.90;100.00;;;;;;5003871;28;20056;-77
2023/11/23 07:52:31;;;;;;;13.35;5.30;;;9.00;100.00;;;;;;5023409;28;20103;-78
2023/11/23 07:54:58;;;;;;;10.23;4.40;;;9.00;100.00;;;;;;5005893;28;20515;-78
2023/11/23 07:57:25;;;;;;;9.57;4.05;;;9.00;100.00;;;;;;5023307;28;20110;-77
2023/11/23 07:59:56;;;;;;;11.57;4.07;;;9.00;100.00;;;;;;5019298;28;20045;-76
2023/11/23 08:02:24;;;;;;;11.05;4.25;;;9.00;100.00;;;;;;5022680;28;20127;-76
2023/11/23 08:04:51;;;;;;;8.30;4.13;;;9.10;100.00;;;;;;5020041;28;20073;-76
2023/11/23 08:07:19;;;;;;;9.77;4.13;;;9.00;100.00;;;;;;5020721;28;20073;-75
2023/11/23 08:09:46;;;;;;;10.30;3.72;;;9.00;100.00;;;;;;4998800;28;20045;-76
2023/11/23 08:12:13;;;;;;;13.32;4.07;;;9.10;100.00;;;;;;5024299;28;20061;-75
2023/11/23 08:14:40;;;;;;;9.77;3.88;;;9.10;100.00;;;;;;5011801;28;20054;-76
2023/11/23 08:17:08;;;;;;;7.15;3.85;;;9.10;100.00;;;;;;5009519;28;20045;-76
2023/11/23 08:19:35;;;;;;;7.45;3.83;;;9.10;100.00;;;;;;5024633;28;20053;-75
2023/11/23 08:22:02;;;;;;;8.57;3.38;;;9.10;100.00;;;;;;5026124;28;20081;-75
2023/11/23 08:24:29;;;;;;;6.95;3.60;;;9.10;100.00;;;;;;5007494;28;20069;-76
2023/11/23 08:26:56;;;;;;;9.23;3.40;;;9.10;100.00;;;;;;5028291;28;20144;-78
2023/11/23 08:29:23;;;;;;;5.35;3.30;;;9.10;100.00;;;;;;5026665;28;20694;-77
2023/11/23 08:31:51;;;;;;;6.90;2.80;;;9.20;100.00;;;;;;5022254;28;20103;-77
2023/11/23 08:34:18;;;;;;;5.65;2.70;;;9.20;100.00;;;;;;5024379;28;20044;-77
2023/11/23 08:36:46;;;;;;;7.20;3.22;;;9.20;100.00;;;;;;5021970;28;20152;-77
2023/11/23 08:39:13;;;;;;;7.50;3.25;;;9.20;100.00;;;;;;5024765;28;20049;-75
2023/11/23 08:41:40;;;;;;;6.78;3.25;;;9.20;100.00;;;;;;5026231;28;20069;-75
2023/11/23 08:44:07;;;;;;;11.38;3.40;;;9.20;100.00;;;;;;5027635;28;20052;-75
2023/11/23 08:46:35;;;;;;;7.68;3.22;;;9.20;100.00;;;;;;5025919;28;20050;-76
2023/11/23 08:49:02;;;;;;;8.82;3.45;;;9.20;100.00;;;;;;4998446;28;20049;-75
2023/11/23 08:51:29;;;;;;;4.88;3.00;;;9.20;100.00;;;;;;5019600;28;20069;-77
2023/11/23 08:53:57;;;;;;;9.02;2.75;;;9.20;100.00;;;;;;5024249;28;20157;-76
2023/11/23 08:56:24;;;;;;;5.97;2.97;;;9.20;100.00;;;;;;5020035;28;20053;-78
2023/11/23 08:58:50;;;;;;;9.02;2.95;;;9.20;100.00;;;;;;4996904;28;20049;-79
2023/11/23 09:01:17;;;;;;;21.70;6.35;;;9.20;100.00;;;;;;5020611;28;20461;-77
2023/11/23 09:03:44;;;;;;;6.85;2.47;;;9.20;100.00;;;;;;5006905;28;20575;-75
2023/11/23 09:06:13;;;;;;;7.65;2.80;;;9.20;100.00;;;;;;5027233;28;20095;-75
2023/11/23 09:08:40;;;;;;;30.40;6.25;;;9.20;100.00;;;;;;5007287;28;20141;-75
2023/11/23 09:11:07;;;;;;;7.38;3.10;;;9.20;100.00;;;;;;5007010;28;20060;-75
2023/11/23 09:13:35;;;;;;;8.85;3.00;;;9.30;100.00;;;;;;5024061;28;20057;-74
2023/11/23 09:16:03;;;;;;;9.52;3.22;;;9.30;100.00;;;;;;5005517;28;20100;-76
2023/11/23 09:18:30;;;;;;;14.10;3.13;;;9.30;100.00;;;;;;5019960;28;20077;-75
2023/11/23 09:20:57;;;;;;;15.55;3.95;;;9.40;100.00;;;;;;5006303;28;20061;-75
2023/11/23 09:23:27;;;;;;;10.20;4.18;;;9.40;100.00;;;;;;5025442;28;20127;-75
2023/11/23 09:25:54;;;;;;;9.43;3.08;;;9.40;100.00;;;;;;5025696;28;20798;-75
2023/11/23 09:28:22;;;;;;;10.68;2.67;;;9.40;100.00;;;;;;5009913;28;20049;-74
2023/11/23 09:30:49;;;;;;;13.15;3.25;;;9.40;100.00;;;;;;5021278;28;20123;-75
2023/11/23 09:33:17;;;;;;;10.90;3.17;;;9.40;100.00;;;;;;5026326;28;20123;-75
2023/11/23 09:35:46;;;;;;;15.93;3.33;;;9.50;100.00;;;;;;5002439;28;20049;-74
2023/11/23 09:38:14;;;;;;;9.75;3.20;;;9.50;100.00;;;;;;5027492;28;20174;-75
2023/11/23 09:40:41;;;;;;;8.55;3.88;;;9.50;100.00;;;;;;4994705;28;20057;-76
2023/11/23 09:43:09;;;;;;;11.98;3.63;;;9.50;100.00;;;;;;5007938;28;20096;-75
2023/11/23 09:45:37;;;;;;;11.40;3.95;;;9.50;100.00;;;;;;5014190;28;20130;-75
2023/11/23 09:48:05;;;;;;;11.20;2.47;;;9.50;100.00;;;;;;5003401;28;20402;-75
2023/11/23 09:50:32;;;;;;;11.60;3.38;;;9.60;100.00;;;;;;5019160;28;20061;-75
2023/11/23 09:53:07;;;;;;;10.68;2.90;;;9.60;100.00;;;;;;5019632;28;20050;-74
2023/11/23 09:55:35;;;;;;;10.20;3.55;;;9.60;100.00;;;;;;5024026;28;20055;-75
2023/11/23 09:58:04;;;;;;;8.35;2.88;;;9.60;100.00;;;;;;5020602;28;20073;-75
2023/11/23 10:00:35;;;;;;;19.35;3.63;;;9.70;100.00;;;;;;5002464;28;20057;-76
2023/11/23 10:03:06;;;;;;;8.82;2.72;;;9.70;100.00;;;;;;5025647;28;20045;-75
2023/11/23 10:05:34;;;;;;;7.88;2.90;;;9.70;100.00;;;;;;5019390;28;20575;-75
2023/11/23 10:08:03;;;;;;;16.27;2.97;;;9.70;100.00;;;;;;5024809;28;20045;-75
2023/11/23 10:10:31;;;;;;;16.83;3.63;;;9.80;100.00;;;;;;5022874;28;20056;-75
2023/11/23 10:12:58;;;;;;;16.55;3.15;;;9.80;100.00;;;;;;5006124;28;20068;-75
2023/11/23 10:21:58;;;;;;;8.15;2.88;;;9.80;100.00;;;;;;5768328;23;20061;-75
2023/11/23 10:24:27;;;;;;;18.80;3.05;;;9.80;100.00;;;;;;5045113;28;20409;-75
2023/11/23 10:26:55;;;;;;;15.73;3.20;;;9.90;100.00;;;;;;5029373;28;20152;-75
2023/11/23 10:29:29;;;;;;;12.63;2.70;;;9.90;100.00;;;;;;5039484;28;20047;-75
2023/11/23 10:32:00;;;;;;;12.43;3.03;;;9.90;100.00;;;;;;5040383;28;20045;-75
2023/11/23 10:34:29;;;;;;;12.05;2.95;;;9.90;100.00;;;;;;5045670;28;20106;-75
2023/11/23 10:36:57;;;;;;;14.38;3.47;;;9.90;100.00;;;;;;5070133;28;20413;-76
2023/11/23 10:39:27;;;;;;;22.08;3.15;;;9.90;100.00;;;;;;5041295;28;20467;-75
2023/11/23 10:41:56;;;;;;;8.45;2.30;;;10.00;100.00;;;;;;5043059;28;20048;-75
2023/11/23 10:44:24;;;;;;;19.92;2.95;;;10.00;100.00;;;;;;5043932;28;20048;-75
2023/11/23 10:46:53;;;;;;;18.85;2.75;;;10.00;100.00;;;;;;5041444;28;20452;-75
2023/11/23 10:49:22;;;;;;;14.95;3.05;;;10.00;100.00;;;;;;5043572;28;20053;-76
2023/11/23 10:51:51;;;;;;;11.82;2.83;;;10.00;100.00;;;;;;5040300;28;20052;-76
2023/11/23 10:54:18;;;;;;;10.32;2.72;;;10.00;100.00;;;;;;5042040;28;20083;-76
2023/11/23 10:56:46;;;;;;;13.05;2.72;;;10.00;100.00;;;;;;5043206;28;20131;-75
2023/11/23 10:59:20;;;;;;;7.22;2.40;;;10.00;100.00;;;;;;5035753;28;20471;-75
2023/11/23 11:01:54;;;;;;;17.20;2.92;;;10.00;100.00;;;;;;5045210;28;20061;-75
2023/11/23 11:04:22;;;;;;;13.35;2.78;;;10.00;100.00;;;;;;5044664;28;20057;-76
2023/11/23 11:06:54;;;;;;;15.07;3.25;;;10.10;100.00;;;;;;5039143;28;20075;-75
2023/11/23 11:09:25;;;;;;;11.30;3.00;;;10.10;100.00;;;;;;5045345;28;20048;-76
2023/11/23 11:11:56;;;;;;;16.25;2.90;;;10.00;100.00;;;;;;5042996;28;20468;-76
2023/11/23 11:14:34;;;;;;;16.42;3.63;;;10.00;100.00;;;;;;5034151;28;20155;-76
2023/11/23 11:17:05;;;;;;;11.70;2.88;;;10.00;100.00;;;;;;5043729;28;20057;-76
2023/11/23 11:19:43;;;;;;;10.70;3.08;;;10.00;100.00;;;;;;5044489;28;20049;-76
2023/11/23 11:22:14;;;;;;;13.57;2.20;;;10.00;100.00;;;;;;5033494;28;20053;-76
2023/11/23 11:24:42;;;;;;;8.60;2.28;;;10.10;100.00;;;;;;5042766;28;20053;-76
2023/11/23 11:27:12;;;;;;;16.00;2.42;;;10.00;100.00;;;;;;5043028;28;20151;-76
2023/11/23 11:29:50;;;;;;;8.82;1.83;;;10.10;100.00;;;;;;5043252;28;20053;-76
2023/11/23 11:32:20;;;;;;;13.40;2.38;;;10.10;100.00;;;;;;5041295;28;20373;-76
2023/11/23 11:34:47;;;;;;;16.08;2.80;;;10.10;100.00;;;;;;5041448;28;20076;-76
2023/11/23 11:37:15;;;;;;;8.85;2.00;;;10.10;100.00;;;;;;5044768;28;20070;-76
2023/11/23 11:39:42;;;;;;;18.65;2.17;;;10.10;100.00;;;;;;5043202;28;20040;-76
2023/11/23 11:42:13;;;;;;;19.65;2.08;;;10.10;100.00;;;;;;5046264;28;20128;-75
2023/11/23 11:44:45;;;;;;;14.57;2.13;;;10.10;100.00;;;;;;5040107;28;20057;-76
2023/11/23 11:47:12;;;;;;;7.47;1.92;;;10.10;100.00;;;;;;5042102;28;20433;-75
2023/11/23 11:49:39;;;;;;;12.82;2.08;;;10.10;100.00;;;;;;5043179;28;20389;-76
2023/11/23 11:52:07;;;;;;;6.10;1.73;;;10.10;100.00;;;;;;5041227;28;20056;-75
2023/11/23 11:54:35;;;;;;;10.50;2.45;;;10.10;100.00;;;;;;5043945;28;20721;-75
2023/11/23 11:57:02;;;;;;;17.92;1.98;;;10.10;100.00;;;;;;5043289;28;20041;-76
2023/11/23 11:59:30;;;;;;;10.32;1.90;;;10.10;100.00;;;;;;5040649;28;20049;-75
2023/11/23 12:01:57;;;;;;;12.50;2.13;;;10.10;100.00;;;;;;5044601;28;20053;-75
2023/11/23 12:04:24;;;;;;;10.48;1.77;;;10.10;100.00;;;;;;5042808;28;20060;-76
2023/11/23 12:06:52;;;;;;;10.73;2.17;;;10.20;100.00;;;;;;5044645;28;20057;-75
2023/11/23 12:09:23;;;;;;;18.40;2.20;;;10.20;100.00;;;;;;5048025;28;20723;-75
2023/11/23 12:12:05;;;;;;;7.60;2.15;;;10.20;100.00;;;;;;5043239;28;20120;-75
2023/11/23 12:14:34;;;;;;;24.88;2.50;;;10.20;100.00;;;;;;5038336;28;20081;-75
2023/11/23 12:17:10;;;;;;;17.08;2.10;;;10.20;100.00;;;;;;5042782;28;20115;-75
2023/11/23 12:19:49;;;;;;;15.02;2.15;;;10.30;100.00;;;;;;5042068;28;20057;-75
2023/11/23 12:22:20;;;;;;;12.02;2.45;;;10.30;100.00;;;;;;5029006;28;20386;-76
2023/11/23 12:24:47;;;;;;;17.95;1.67;;;10.30;100.00;;;;;;5016841;28;20441;-76
2023/11/23 12:27:14;;;;;;;18.80;2.17;;;10.30;100.00;;;;;;5019589;28;20041;-76
2023/11/23 12:29:47;;;;;;;12.90;2.40;;;10.30;100.00;;;;;;5022696;28;20402;-76
2023/11/23 12:32:15;;;;;;;14.32;2.55;;;10.30;100.00;;;;;;5022427;28;20050;-76
2023/11/23 12:34:42;;;;;;;22.90;3.13;;;10.30;100.00;;;;;;5020363;28;20054;-76
2023/11/23 12:37:09;;;;;;;9.45;1.67;;;10.30;100.00;;;;;;5016543;28;20080;-73
2023/11/23 12:39:36;;;;;;;17.55;2.50;;;10.30;100.00;;;;;;5021045;28;20115;-74
2023/11/23 12:42:03;;;;;;;12.82;1.90;;;10.30;100.00;;;;;;4997809;28;20057;-74
2023/11/23 12:44:30;;;;;;;13.95;1.75;;;10.30;100.00;;;;;;5017754;28;20059;-74
2023/11/23 12:46:57;;;;;;;16.50;2.33;;;10.30;100.00;;;;;;5017181;28;20077;-73
2023/11/23 12:49:25;;;;;;;11.98;2.08;;;10.30;100.00;;;;;;5018093;28;20042;-74
2023/11/23 12:51:52;;;;;;;17.10;2.47;;;10.40;100.00;;;;;;5006387;28;20400;-76
2023/11/23 12:54:19;;;;;;;12.30;1.95;;;10.40;100.00;;;;;;5021784;28;20776;-73
2023/11/23 12:56:46;;;;;;;15.48;2.00;;;10.30;100.00;;;;;;5024697;28;20091;-73
2023/11/23 12:59:13;;;;;;;10.57;2.60;;;10.30;100.00;;;;;;5021681;28;20838;-73